Lawrenceburg, TN

9:34 PM CST on November 27, 2014 (GMT -0600)
Maury County | Change Station
CLOSE
Current Station
Airport
Location: Columbia / Mount Pleasant,
Elevation: 679 ft
Nearby Weather Stations

Elev 679 ft 35.55 °N, 87.18 °W | Updated 19 minutes ago

Partly Cloudy
Partly Cloudy
28 °F
Feels Like 28 °F
N
0
Wind Variable Wind from North

Today
High -- | Low -- °F
--% Chance of Precip.
Yesterday
High -- | Low -- °F
Precip. -- in
6:35 AM 4:37 PM
Waxing Crescent, 36% visible
Pressure 30.47 in
Visibility 10.0 miles
Clouds Clear
Dew Point 25 °F
Humidity 86%
Rainfall 0.00 in
Snow Depth Not available.
UV 0 out of 12
Pollen .30 out of 12
Air Quality Not available.
Flu Activity Not available.
METAR KMRC 280315Z AUTO 00000KT 10SM CLR M02/M04 A3047 RMK

More Conditions Fewer Conditions

Pressure 30.47 in
Visibility 10.0 miles
Clouds Clear
Dew Point 25 °F
Humidity 86%
Rainfall 0.00 in
Snow Depth Not available.
UV 0 out of 12
Pollen .30 out of 12
Air Quality Not available.
Flu Activity Not available.
METAR KMRC 280315Z AUTO 00000KT 10SM CLR M02/M04 A3047 RMK

More Conditions Fewer Conditions

10-Day Weather Forecast

Almanac

Astronomy

Nov. 27, 2014 Rise Set
Actual Time
Civil Twilight
Nautical Twilight
Astronomical Twilight
Moon
Length of Visible Light
Length of Day
Tomorrow will be .
, % of the Moon is Illuminated

Today's Extremes

State Highs State Lows

Community

WunderPhotos

Upload Photos

1,774,168 photos uploaded!

WunderBlogs® & News

Nearby

Air Quality

  Air Quality AQ Index Pollutant
Not available.

Snow Depth

Station Depth Elevation

Earthquake Activity

City Distance Mag. Time & Date
Minimum magnitude displayed is 2.5.

Coastal Water Temperatures

Place Temperature

Nearby Weather Stations